createdAt,value
2023-05-09T00:00:40.394Z,18.22
2023-05-09T00:01:43.955Z,18.30
2023-05-09T00:02:48.080Z,18.31
2023-05-09T00:03:51.946Z,18.30
2023-05-09T00:04:55.397Z,18.47
2023-05-09T00:05:57.599Z,18.22
2023-05-09T00:07:03.283Z,18.05
2023-05-09T00:08:05.795Z,18.08
2023-05-09T00:09:09.526Z,18.14
2023-05-09T00:10:11.815Z,18.47
2023-05-09T00:11:15.285Z,18.45
2023-05-09T00:12:17.659Z,18.61
2023-05-09T00:13:21.106Z,18.74
2023-05-09T00:14:24.943Z,18.88
2023-05-09T00:15:30.625Z,18.91
2023-05-09T00:16:34.478Z,18.90
2023-05-09T00:17:38.694Z,19.06
2023-05-09T00:18:42.388Z,19.01
2023-05-09T00:19:45.783Z,19.10
2023-05-09T00:20:48.183Z,19.19
2023-05-09T00:22:04.807Z,19.36
2023-05-09T00:23:07.552Z,19.32
2023-05-09T00:24:12.336Z,19.20
2023-05-09T00:25:14.893Z,19.40
2023-05-09T00:26:19.572Z,19.28
2023-05-09T00:27:33.721Z,19.36
2023-05-09T00:28:38.439Z,19.29
2023-05-09T00:29:42.359Z,19.01
2023-05-09T00:30:47.425Z,18.90
2023-05-09T00:31:50.178Z,18.87
2023-05-09T00:32:55.410Z,18.82
2023-05-09T00:33:58.078Z,19.00
2023-05-09T00:35:03.333Z,19.08
2023-05-09T00:36:08.072Z,18.91
2023-05-09T00:37:13.555Z,18.87
2023-05-09T00:38:16.750Z,18.91
2023-05-09T00:39:22.122Z,18.56
2023-05-09T00:40:25.477Z,18.49
2023-05-09T00:41:29.605Z,18.55
2023-05-09T00:42:31.919Z,18.53
2023-05-09T00:43:35.312Z,18.47
2023-05-09T00:44:37.684Z,18.66
2023-05-09T00:45:41.130Z,18.54
2023-05-09T00:46:45.225Z,18.34
2023-05-09T00:47:48.699Z,18.18
2023-05-09T00:48:52.606Z,18.14
2023-05-09T00:49:56.857Z,18.16
2023-05-09T00:51:00.554Z,18.24
2023-05-09T00:52:05.077Z,18.41
2023-05-09T00:53:08.546Z,18.55
2023-05-09T00:54:12.183Z,18.81
2023-05-09T00:55:16.521Z,18.94
2023-05-09T00:56:20.482Z,18.97
2023-05-09T00:57:23.266Z,18.96
2023-05-09T00:58:27.160Z,18.89
2023-05-09T00:59:29.570Z,19.00
2023-05-09T01:00:33.780Z,18.62
2023-05-09T01:01:38.038Z,18.50
2023-05-09T01:02:43.551Z,18.48
2023-05-09T01:03:47.608Z,18.26
2023-05-09T01:04:51.185Z,18.46
2023-05-09T01:06:03.324Z,18.58
2023-05-09T01:07:12.858Z,18.24
2023-05-09T01:08:26.255Z,18.39
2023-05-09T01:09:39.152Z,18.19
2023-05-09T01:10:47.555Z,18.28
2023-05-09T01:11:59.823Z,18.33
2023-05-09T01:13:06.515Z,18.51
2023-05-09T01:14:16.971Z,18.43
2023-05-09T01:15:24.760Z,18.38
2023-05-09T01:16:32.919Z,18.40
2023-05-09T01:17:44.195Z,18.52
2023-05-09T01:18:57.489Z,18.36
2023-05-09T01:20:11.171Z,18.20
2023-05-09T01:21:19.661Z,17.84
2023-05-09T01:22:29.495Z,18.19
2023-05-09T01:24:09.676Z,17.50
2023-05-09T01:25:38.264Z,17.95
2023-05-09T01:27:03.661Z,17.73
2023-05-09T01:28:14.807Z,17.93
2023-05-09T01:29:37.253Z,17.63
2023-05-09T01:30:43.552Z,17.98
2023-05-09T01:31:49.242Z,18.02
2023-05-09T01:32:56.336Z,18.00
2023-05-09T01:34:03.061Z,18.01
2023-05-09T01:35:08.388Z,17.70
2023-05-09T01:36:18.234Z,17.99
2023-05-09T01:37:29.874Z,18.06
2023-05-09T01:38:33.318Z,18.27
2023-05-09T01:39:41.339Z,18.29
2023-05-09T01:40:45.997Z,17.93
2023-05-09T01:41:50.663Z,18.04
2023-05-09T01:42:58.954Z,18.27
2023-05-09T01:44:04.897Z,18.44
2023-05-09T01:45:10.985Z,18.44
2023-05-09T01:46:15.507Z,18.43
2023-05-09T01:47:20.109Z,18.49
2023-05-09T01:48:26.610Z,18.08
2023-05-09T01:49:31.598Z,17.85
2023-05-09T01:50:36.867Z,17.74
2023-05-09T01:51:41.638Z,17.82
2023-05-09T01:52:50.125Z,18.05
2023-05-09T01:53:54.586Z,18.08
2023-05-09T01:54:59.246Z,18.15
2023-05-09T01:56:03.325Z,18.21
2023-05-09T01:57:08.903Z,18.17
2023-05-09T01:58:12.444Z,17.95
2023-05-09T01:59:17.419Z,18.03
2023-05-09T02:00:23.212Z,18.20
2023-05-09T02:01:27.600Z,18.35
2023-05-09T02:02:30.064Z,18.38
2023-05-09T02:03:34.400Z,18.26
2023-05-09T02:04:37.580Z,18.10
2023-05-09T02:05:42.770Z,18.24
2023-05-09T02:06:50.823Z,18.02
2023-05-09T02:07:57.412Z,18.19
2023-05-09T02:09:00.184Z,18.24
2023-05-09T02:10:04.999Z,18.04
2023-05-09T02:11:07.845Z,17.67
2023-05-09T02:12:12.418Z,17.92
2023-05-09T02:13:14.905Z,18.16
2023-05-09T02:14:19.153Z,18.33
2023-05-09T02:15:23.757Z,18.34
2023-05-09T02:16:29.172Z,18.26
2023-05-09T02:17:32.388Z,18.30
2023-05-09T02:18:36.656Z,18.45
2023-05-09T02:19:39.026Z,18.47
2023-05-09T02:20:42.606Z,18.46
2023-05-09T02:21:46.494Z,18.65
2023-05-09T02:22:50.217Z,18.73
2023-05-09T02:23:52.648Z,18.64
2023-05-09T02:24:56.223Z,18.65
2023-05-09T02:25:58.648Z,18.65
2023-05-09T02:27:03.936Z,18.80
2023-05-09T02:28:07.689Z,18.72
2023-05-09T02:29:13.200Z,18.24
2023-05-09T02:30:20.662Z,18.00
2023-05-09T02:31:28.205Z,18.25
2023-05-09T02:32:32.647Z,18.32
2023-05-09T02:33:38.225Z,18.21
2023-05-09T02:34:42.232Z,17.93
2023-05-09T02:35:47.817Z,17.84
2023-05-09T02:36:50.468Z,17.84
2023-05-09T02:37:55.190Z,17.63
2023-05-09T02:38:57.668Z,17.89
2023-05-09T02:40:02.633Z,17.80
2023-05-09T02:41:05.081Z,17.78
2023-05-09T02:42:11.210Z,17.92
2023-05-09T02:43:15.347Z,18.00
2023-05-09T02:44:18.702Z,17.95
2023-05-09T02:45:21.034Z,17.91
2023-05-09T02:46:25.940Z,17.89
2023-05-09T02:47:28.366Z,17.91
2023-05-09T02:48:31.786Z,18.00
2023-05-09T02:49:34.562Z,18.05
2023-05-09T02:50:39.687Z,18.02
2023-05-09T02:51:42.034Z,17.96
2023-05-09T02:52:48.070Z,18.25
2023-05-09T02:53:50.318Z,18.34
2023-05-09T02:54:53.904Z,18.25
2023-05-09T02:55:56.252Z,18.35
2023-05-09T02:56:59.934Z,18.55
2023-05-09T02:58:12.501Z,18.13
2023-05-09T02:59:16.763Z,17.71
2023-05-09T03:00:21.722Z,17.72
2023-05-09T03:01:26.606Z,17.81
2023-05-09T03:02:28.906Z,18.10
2023-05-09T03:03:34.839Z,17.79
2023-05-09T03:04:37.252Z,17.68
2023-05-09T03:05:41.104Z,17.85
2023-05-09T03:06:43.560Z,17.78
2023-05-09T03:07:47.515Z,17.76
2023-05-09T03:08:49.939Z,17.77
2023-05-09T03:09:53.304Z,17.77
2023-05-09T03:10:55.666Z,17.92
2023-05-09T03:11:58.997Z,18.08
2023-05-09T03:13:02.018Z,17.78
2023-05-09T03:14:06.393Z,18.04
2023-05-09T03:15:09.933Z,18.11
2023-05-09T03:16:15.553Z,18.20
2023-05-09T03:17:21.537Z,18.22
2023-05-09T03:18:24.913Z,18.41
2023-05-09T03:19:27.348Z,18.48
2023-05-09T03:20:30.706Z,18.11
2023-05-09T03:21:33.187Z,17.73
2023-05-09T03:22:37.264Z,17.81
2023-05-09T03:23:39.929Z,18.06
2023-05-09T03:24:43.965Z,18.16
2023-05-09T03:25:50.344Z,18.25
2023-05-09T03:26:53.689Z,17.78
2023-05-09T03:27:56.251Z,17.52
2023-05-09T03:28:59.982Z,17.86
2023-05-09T03:30:02.616Z,17.65
2023-05-09T03:31:06.377Z,17.88
2023-05-09T03:32:08.670Z,17.68
2023-05-09T03:33:13.656Z,17.84
2023-05-09T03:34:16.575Z,18.12
2023-05-09T03:35:22.389Z,18.15
2023-05-09T03:36:26.708Z,18.07
2023-05-09T03:37:30.381Z,18.21
2023-05-09T03:38:33.794Z,17.96
2023-05-09T03:39:36.073Z,17.77
2023-05-09T03:40:39.538Z,17.95
2023-05-09T03:41:43.130Z,18.17
2023-05-09T03:42:46.873Z,18.37
2023-05-09T03:43:49.161Z,18.40
2023-05-09T03:44:53.161Z,18.32
2023-05-09T03:45:56.217Z,18.04
2023-05-09T03:46:59.802Z,17.86
2023-05-09T03:48:03.205Z,17.90
2023-05-09T03:49:08.392Z,18.02
2023-05-09T03:50:11.170Z,18.16
2023-05-09T03:51:15.162Z,18.33
2023-05-09T03:52:18.190Z,18.10
2023-05-09T03:53:21.818Z,17.91
2023-05-09T03:54:24.203Z,18.10
2023-05-09T03:55:27.752Z,18.30
2023-05-09T03:56:29.927Z,18.44
2023-05-09T03:57:35.906Z,18.42
2023-05-09T03:58:38.162Z,18.06
2023-05-09T03:59:41.733Z,18.19
2023-05-09T04:00:44.040Z,18.13
2023-05-09T04:01:47.529Z,18.24
2023-05-09T04:02:50.389Z,18.29
2023-05-09T04:03:53.829Z,18.47
2023-05-09T04:04:57.678Z,18.32
2023-05-09T04:06:01.178Z,18.12
2023-05-09T04:07:04.086Z,18.31
2023-05-09T04:08:07.790Z,18.46
2023-05-09T04:09:10.160Z,18.36
2023-05-09T04:10:13.454Z,18.35
2023-05-09T04:11:15.921Z,18.51
2023-05-09T04:12:19.307Z,18.62
2023-05-09T04:13:21.640Z,18.11
2023-05-09T04:14:25.473Z,18.12
2023-05-09T04:15:27.867Z,18.22
2023-05-09T04:16:31.979Z,18.16
2023-05-09T04:17:34.295Z,18.35
2023-05-09T04:18:40.100Z,18.03
2023-05-09T04:19:42.313Z,18.20
2023-05-09T04:20:47.091Z,18.32
2023-05-09T04:21:49.640Z,18.48
2023-05-09T04:22:52.889Z,18.40
2023-05-09T04:23:55.136Z,18.54
2023-05-09T04:24:58.748Z,18.12
2023-05-09T04:26:01.013Z,18.18
2023-05-09T04:27:05.756Z,18.35
2023-05-09T04:28:08.487Z,18.49
2023-05-09T04:29:12.079Z,18.62
2023-05-09T04:30:15.164Z,18.47
2023-05-09T04:31:19.469Z,18.46
2023-05-09T04:32:23.463Z,18.39
2023-05-09T04:33:26.823Z,18.30
2023-05-09T04:34:29.871Z,18.21
2023-05-09T04:35:33.494Z,18.15
2023-05-09T04:36:37.251Z,18.31
2023-05-09T04:37:41.873Z,18.31
2023-05-09T04:38:44.268Z,18.07
2023-05-09T04:39:50.165Z,17.99
2023-05-09T04:40:54.400Z,18.17
2023-05-09T04:41:57.661Z,18.19
2023-05-09T04:42:59.953Z,17.79
2023-05-09T04:44:05.760Z,17.85
2023-05-09T04:45:09.544Z,17.88
2023-05-09T04:46:12.890Z,18.07
2023-05-09T04:47:15.313Z,18.26
2023-05-09T04:48:20.457Z,18.42
2023-05-09T04:49:25.277Z,18.50
2023-05-09T04:50:28.912Z,18.52
2023-05-09T04:51:31.215Z,18.63
2023-05-09T04:52:39.307Z,18.64
2023-05-09T04:53:41.635Z,18.76
2023-05-09T04:54:45.276Z,18.83
2023-05-09T04:55:47.600Z,18.87
2023-05-09T04:56:51.024Z,18.64
2023-05-09T04:57:53.356Z,18.65
2023-05-09T04:58:57.216Z,18.82
2023-05-09T04:59:59.688Z,18.86
2023-05-09T05:01:03.026Z,18.00
2023-05-09T05:02:05.306Z,17.90
2023-05-09T05:03:09.445Z,17.98
2023-05-09T05:04:11.962Z,18.00
2023-05-09T05:05:15.787Z,17.76
2023-05-09T05:06:18.294Z,17.37
2023-05-09T05:07:21.605Z,17.68
2023-05-09T05:08:25.636Z,17.27
2023-05-09T05:09:28.884Z,17.66
2023-05-09T05:10:31.171Z,17.26
2023-05-09T05:11:34.632Z,17.03
2023-05-09T05:12:37.096Z,17.38
2023-05-09T05:13:40.472Z,17.67
2023-05-09T05:14:42.792Z,17.78
2023-05-09T05:15:46.437Z,17.92
2023-05-09T05:16:48.762Z,18.17
2023-05-09T05:17:52.236Z,18.27
2023-05-09T05:18:54.414Z,17.91
2023-05-09T05:19:57.729Z,17.70
2023-05-09T05:20:59.996Z,17.79
2023-05-09T05:22:04.541Z,17.92
2023-05-09T05:23:06.855Z,18.20
2023-05-09T05:24:11.611Z,18.14
2023-05-09T05:25:14.212Z,18.10
2023-05-09T05:26:17.977Z,18.10
2023-05-09T05:27:20.347Z,18.07
2023-05-09T05:28:23.726Z,18.08
2023-05-09T05:29:27.474Z,18.18
2023-05-09T05:30:32.789Z,18.29
2023-05-09T05:31:36.679Z,18.38
2023-05-09T05:32:40.083Z,18.56
2023-05-09T05:33:42.504Z,18.68
2023-05-09T05:34:46.261Z,18.19
2023-05-09T05:35:48.955Z,18.04
2023-05-09T05:36:52.330Z,18.22
2023-05-09T05:37:54.814Z,18.49
2023-05-09T05:38:58.179Z,18.65
2023-05-09T05:40:02.098Z,18.43
2023-05-09T05:41:11.351Z,18.60
2023-05-09T05:42:13.675Z,18.79
2023-05-09T05:43:17.186Z,18.68
2023-05-09T05:44:19.658Z,18.91
2023-05-09T05:45:23.006Z,18.81
2023-05-09T05:46:25.351Z,18.58
2023-05-09T05:47:29.309Z,18.62
2023-05-09T05:48:31.983Z,18.72
2023-05-09T05:49:35.715Z,18.82
2023-05-09T05:50:37.960Z,18.97
2023-05-09T05:51:41.543Z,19.00
2023-05-09T05:52:43.880Z,19.08
2023-05-09T05:53:47.546Z,19.17
2023-05-09T05:54:49.908Z,19.24
2023-05-09T05:55:54.777Z,18.83
2023-05-09T05:56:57.448Z,18.64
2023-05-09T05:58:00.756Z,18.87
2023-05-09T05:59:04.100Z,18.61
2023-05-09T06:00:10.000Z,18.69
2023-05-09T06:01:14.165Z,18.97
2023-05-09T06:02:16.698Z,18.69
2023-05-09T06:03:20.004Z,18.73
2023-05-09T06:04:23.310Z,18.81
2023-05-09T06:05:25.580Z,18.47
2023-05-09T06:06:29.067Z,18.42
2023-05-09T06:07:31.563Z,18.60
2023-05-09T06:08:35.133Z,18.87
2023-05-09T06:09:37.351Z,18.96
2023-05-09T06:10:40.859Z,19.04
2023-05-09T06:11:44.379Z,18.77
2023-05-09T06:12:47.898Z,18.82
2023-05-09T06:13:50.109Z,18.99
2023-05-09T06:14:53.365Z,19.00
2023-05-09T06:16:01.997Z,19.27
2023-05-09T06:17:08.188Z,19.11
2023-05-09T06:18:10.859Z,19.01
2023-05-09T06:19:14.174Z,19.22
2023-05-09T06:20:16.685Z,19.32
2023-05-09T06:21:19.952Z,19.45
2023-05-09T06:22:22.396Z,19.22
2023-05-09T06:23:25.760Z,19.14
2023-05-09T06:24:35.631Z,19.40
2023-05-09T06:25:39.566Z,19.53
2023-05-09T06:26:43.529Z,19.66
2023-05-09T06:27:49.242Z,19.71
2023-05-09T06:28:55.125Z,19.69
2023-05-09T06:29:57.297Z,19.54
2023-05-09T06:31:02.542Z,19.79
2023-05-09T06:32:05.365Z,19.91
2023-05-09T06:33:09.579Z,19.95
2023-05-09T06:34:13.191Z,20.05
2023-05-09T06:35:16.099Z,20.01
2023-05-09T06:36:19.802Z,19.97
2023-05-09T06:37:21.933Z,19.99
2023-05-09T06:38:25.126Z,20.19
2023-05-09T06:39:27.315Z,20.40
2023-05-09T06:40:30.608Z,20.43
2023-05-09T06:41:32.848Z,20.36
2023-05-09T06:42:38.834Z,20.29
2023-05-09T06:43:42.734Z,19.91
2023-05-09T06:44:46.106Z,20.15
2023-05-09T06:45:48.400Z,19.55
2023-05-09T06:46:52.281Z,19.36
2023-05-09T06:47:54.792Z,19.30
2023-05-09T06:48:58.201Z,19.36
2023-05-09T06:50:02.103Z,19.68
2023-05-09T06:51:05.828Z,19.81
2023-05-09T06:52:08.248Z,19.97
2023-05-09T06:53:11.633Z,19.83
2023-05-09T06:54:14.253Z,19.35
2023-05-09T06:55:18.110Z,19.38
2023-05-09T06:56:23.203Z,19.72
2023-05-09T06:57:25.607Z,19.98
2023-05-09T06:58:29.996Z,20.09
2023-05-09T06:59:33.916Z,20.24
2023-05-09T07:00:38.105Z,20.12
2023-05-09T07:01:40.710Z,19.94
2023-05-09T07:02:44.142Z,19.82
2023-05-09T07:03:47.678Z,19.94
2023-05-09T07:04:54.200Z,20.04
2023-05-09T07:05:58.995Z,19.86
2023-05-09T07:07:02.262Z,19.70
2023-05-09T07:08:05.994Z,19.88
2023-05-09T07:09:09.260Z,20.06
2023-05-09T07:10:13.413Z,20.14
2023-05-09T07:11:16.800Z,20.35
2023-05-09T07:12:19.152Z,19.92
2023-05-09T07:13:23.014Z,19.85
2023-05-09T07:14:25.580Z,20.17
2023-05-09T07:15:40.389Z,19.88
2023-05-09T07:16:43.978Z,20.00
2023-05-09T07:17:48.511Z,20.08
2023-05-09T07:18:50.702Z,19.96
2023-05-09T07:19:56.499Z,20.39
2023-05-09T07:20:58.867Z,20.64
2023-05-09T07:22:02.244Z,20.88
2023-05-09T07:23:05.630Z,20.42
2023-05-09T07:24:09.316Z,20.77
2023-05-09T07:25:11.570Z,21.21
2023-05-09T07:26:14.891Z,21.43
2023-05-09T07:27:18.366Z,21.63
2023-05-09T07:28:21.861Z,21.68
2023-05-09T07:29:24.137Z,21.68
2023-05-09T07:30:27.359Z,21.59
2023-05-09T07:31:34.064Z,21.43
2023-05-09T07:32:39.731Z,21.04
2023-05-09T07:33:42.342Z,20.72
2023-05-09T07:34:45.826Z,20.58
2023-05-09T07:35:49.204Z,20.65
2023-05-09T07:36:51.618Z,20.58
2023-05-09T07:37:55.030Z,20.84
2023-05-09T07:38:58.453Z,21.14
2023-05-09T07:40:00.933Z,21.40
2023-05-09T07:41:04.627Z,21.57
2023-05-09T07:42:08.484Z,21.58
2023-05-09T07:43:11.851Z,21.76
2023-05-09T07:44:16.683Z,21.98
2023-05-09T07:45:20.650Z,21.73
2023-05-09T07:46:26.550Z,21.26
2023-05-09T07:47:31.528Z,21.30
2023-05-09T07:48:33.857Z,21.54
2023-05-09T07:49:37.212Z,21.78
2023-05-09T07:50:40.519Z,21.79
2023-05-09T07:51:44.123Z,22.00
2023-05-09T07:52:46.667Z,22.13
2023-05-09T07:53:49.937Z,22.31
2023-05-09T07:54:54.759Z,22.37
2023-05-09T07:55:59.551Z,22.49
2023-05-09T07:57:02.822Z,22.42
2023-05-09T07:58:06.045Z,22.60
2023-05-09T07:59:08.606Z,22.57
2023-05-09T08:00:13.022Z,22.64
2023-05-09T08:01:16.333Z,22.50
2023-05-09T08:02:18.881Z,22.62
2023-05-09T08:03:23.691Z,22.68
2023-05-09T08:04:27.072Z,22.84
2023-05-09T08:05:30.846Z,22.55
2023-05-09T08:06:36.947Z,22.48
2023-05-09T08:07:40.812Z,22.36
2023-05-09T08:08:43.157Z,21.83
2023-05-09T08:09:46.352Z,21.03
2023-05-09T08:10:51.777Z,21.46
2023-05-09T08:11:55.006Z,21.73
2023-05-09T08:12:57.430Z,21.89
2023-05-09T08:14:00.658Z,21.86
2023-05-09T08:15:03.226Z,21.10
2023-05-09T08:16:07.219Z,21.19
2023-05-09T08:17:09.881Z,21.32
2023-05-09T08:18:13.185Z,21.50
2023-05-09T08:19:18.070Z,21.57
2023-05-09T08:20:20.241Z,21.50
2023-05-09T08:21:23.617Z,21.75
2023-05-09T08:22:25.745Z,21.36
2023-05-09T08:23:30.449Z,21.44
2023-05-09T08:24:33.021Z,21.65
2023-05-09T08:25:36.339Z,21.91
2023-05-09T08:26:40.440Z,21.94
2023-05-09T08:27:43.654Z,22.00
2023-05-09T08:28:46.944Z,21.58
2023-05-09T08:29:50.249Z,21.55
2023-05-09T08:30:52.770Z,21.25
2023-05-09T08:31:56.051Z,21.37
2023-05-09T08:32:58.529Z,21.47
2023-05-09T08:34:02.473Z,21.07
2023-05-09T08:35:08.998Z,21.25
2023-05-09T08:36:12.696Z,21.22
2023-05-09T08:37:15.671Z,20.84
2023-05-09T08:38:19.291Z,20.89
2023-05-09T08:39:23.319Z,20.44
2023-05-09T08:40:28.999Z,20.30
2023-05-09T08:41:36.106Z,20.41
2023-05-09T08:42:40.249Z,20.24
2023-05-09T08:43:43.657Z,20.43
2023-05-09T08:44:46.443Z,20.81
2023-05-09T08:45:55.591Z,21.20
2023-05-09T08:47:01.399Z,21.42
2023-05-09T08:48:04.093Z,21.64
2023-05-09T08:49:08.400Z,21.76
2023-05-09T08:50:15.785Z,21.85
2023-05-09T08:51:19.533Z,22.04
2023-05-09T08:52:22.184Z,22.16
2023-05-09T08:53:26.833Z,22.27
2023-05-09T08:54:30.923Z,22.23
2023-05-09T08:55:33.327Z,22.03
2023-05-09T08:56:36.780Z,22.14
2023-05-09T08:57:40.301Z,22.31
2023-05-09T08:58:42.815Z,22.47
2023-05-09T08:59:46.812Z,22.39
2023-05-09T09:00:50.572Z,22.54
2023-05-09T09:01:55.187Z,22.57
2023-05-09T09:03:02.016Z,22.65
2023-05-09T09:04:12.038Z,22.71
2023-05-09T09:05:39.325Z,22.66
2023-05-09T09:06:42.244Z,22.88
2023-05-09T09:07:47.297Z,22.92
2023-05-09T09:08:51.553Z,23.06
2023-05-09T09:09:55.943Z,23.17
2023-05-09T09:10:59.784Z,23.28
2023-05-09T09:12:03.852Z,23.39
2023-05-09T09:13:07.510Z,23.28
2023-05-09T09:14:16.617Z,23.27
2023-05-09T09:15:21.615Z,23.18
2023-05-09T09:16:26.880Z,22.90
2023-05-09T09:17:31.991Z,23.13
2023-05-09T09:18:35.416Z,23.41
2023-05-09T09:19:42.001Z,23.47
2023-05-09T09:20:54.485Z,23.25
2023-05-09T09:22:01.071Z,23.20
2023-05-09T09:23:06.129Z,23.11
2023-05-09T09:24:11.230Z,22.84
2023-05-09T09:25:14.600Z,22.77
2023-05-09T09:26:19.250Z,22.84
2023-05-09T09:27:22.502Z,22.78
2023-05-09T09:28:25.819Z,23.04
2023-05-09T09:29:29.286Z,22.82
2023-05-09T09:30:32.682Z,22.80
2023-05-09T09:31:36.190Z,22.75
2023-05-09T09:32:40.372Z,22.61
2023-05-09T09:33:44.495Z,22.60
2023-05-09T09:34:50.961Z,22.61
2023-05-09T09:35:57.017Z,22.60
2023-05-09T09:37:00.678Z,22.36
2023-05-09T09:38:03.153Z,22.35
2023-05-09T09:39:06.985Z,22.32
2023-05-09T09:40:12.330Z,22.28
2023-05-09T09:41:15.379Z,22.34
2023-05-09T09:42:18.544Z,22.50
2023-05-09T09:43:21.843Z,22.54
2023-05-09T09:44:25.012Z,22.62
2023-05-09T09:45:28.586Z,22.95
2023-05-09T09:46:42.474Z,23.06
2023-05-09T09:47:48.316Z,23.07
2023-05-09T09:48:55.199Z,23.09
2023-05-09T09:49:59.051Z,23.02
2023-05-09T09:51:08.621Z,23.17
2023-05-09T09:52:11.790Z,23.23
2023-05-09T09:53:13.931Z,23.11
2023-05-09T09:54:17.139Z,22.80
2023-05-09T09:55:20.385Z,22.44
2023-05-09T09:56:25.462Z,22.69
2023-05-09T09:57:40.003Z,22.67
2023-05-09T09:58:46.414Z,22.16
2023-05-09T09:59:59.619Z,22.06
2023-05-09T10:01:07.642Z,22.26
2023-05-09T10:02:13.086Z,22.22
2023-05-09T10:03:17.148Z,22.15
2023-05-09T10:04:20.529Z,22.08
2023-05-09T10:05:24.677Z,21.99
2023-05-09T10:06:29.402Z,21.92
2023-05-09T10:07:33.982Z,21.64
2023-05-09T10:08:37.269Z,21.50
2023-05-09T10:09:41.315Z,21.31
2023-05-09T10:10:46.159Z,21.11
2023-05-09T10:11:50.792Z,20.98
2023-05-09T10:13:00.155Z,20.91
2023-05-09T10:14:07.292Z,20.80
2023-05-09T10:15:11.695Z,20.68
2023-05-09T10:16:16.048Z,20.85
2023-05-09T10:17:21.595Z,21.03
2023-05-09T10:18:28.687Z,21.10
2023-05-09T10:19:33.558Z,21.18
2023-05-09T10:20:39.411Z,21.17
2023-05-09T10:21:44.763Z,21.26
2023-05-09T10:22:48.660Z,21.24
2023-05-09T10:23:53.980Z,21.50
2023-05-09T10:25:03.143Z,21.60
2023-05-09T10:26:13.596Z,21.98
2023-05-09T10:27:22.925Z,21.97
2023-05-09T10:28:34.462Z,22.17
2023-05-09T10:29:41.541Z,22.01
2023-05-09T10:30:52.384Z,22.04
2023-05-09T10:32:02.758Z,22.17
2023-05-09T10:33:11.292Z,21.93
2023-05-09T10:34:15.515Z,21.97
2023-05-09T10:35:20.664Z,22.09
2023-05-09T10:36:24.078Z,22.07
2023-05-09T10:37:30.599Z,21.83
2023-05-09T10:38:38.341Z,21.95
2023-05-09T10:39:42.194Z,21.99
2023-05-09T10:40:48.663Z,21.87
2023-05-09T10:41:52.145Z,21.80
2023-05-09T10:42:55.499Z,21.82
2023-05-09T10:43:59.238Z,21.83
2023-05-09T10:45:03.180Z,21.78
2023-05-09T10:46:07.227Z,21.93
2023-05-09T10:47:13.173Z,21.95
2023-05-09T10:48:17.166Z,21.95
2023-05-09T10:49:20.649Z,22.17
2023-05-09T10:50:24.806Z,22.50
2023-05-09T10:51:27.755Z,22.35
2023-05-09T10:52:34.727Z,22.25
2023-05-09T10:53:45.437Z,22.38
2023-05-09T10:55:01.023Z,22.43
2023-05-09T10:56:04.740Z,22.47
2023-05-09T10:57:10.671Z,22.33
2023-05-09T10:58:20.358Z,22.53
2023-05-09T10:59:37.939Z,22.36
2023-05-09T11:00:42.374Z,22.27
2023-05-09T11:01:46.621Z,22.29
2023-05-09T11:03:07.768Z,22.36
2023-05-09T11:04:12.893Z,22.24
2023-05-09T11:05:18.569Z,22.29
2023-05-09T11:06:44.885Z,22.32
2023-05-09T11:08:10.208Z,22.37
2023-05-09T11:09:41.748Z,22.48
2023-05-09T11:10:44.409Z,22.60
2023-05-09T11:11:55.106Z,22.70
2023-05-09T11:12:59.973Z,23.13
2023-05-09T11:14:03.993Z,23.19
2023-05-09T11:15:09.141Z,23.18
2023-05-09T11:16:13.513Z,23.41
2023-05-09T11:17:31.752Z,23.33
2023-05-09T11:18:34.621Z,23.37
2023-05-09T11:19:40.294Z,23.15
2023-05-09T11:20:47.531Z,22.94
2023-05-09T11:22:01.146Z,22.70
2023-05-09T11:23:08.682Z,22.74
2023-05-09T11:24:18.292Z,22.89
2023-05-09T11:25:28.505Z,22.68
2023-05-09T11:26:32.634Z,22.72
2023-05-09T11:27:43.655Z,22.66
2023-05-09T11:28:55.307Z,22.56
2023-05-09T11:29:59.419Z,22.77
2023-05-09T11:31:12.196Z,23.11
2023-05-09T11:32:16.192Z,23.43
2023-05-09T11:33:24.224Z,23.69
2023-05-09T11:34:26.826Z,23.56
2023-05-09T11:35:30.306Z,23.28
2023-05-09T11:36:33.916Z,22.82
2023-05-09T11:37:46.623Z,22.69
2023-05-09T11:39:02.234Z,22.76
2023-05-09T11:40:06.208Z,22.89
2023-05-09T11:41:08.872Z,23.14
2023-05-09T11:42:22.713Z,23.06
2023-05-09T11:43:26.360Z,22.88
2023-05-09T11:44:33.511Z,23.15
2023-05-09T11:45:37.262Z,22.97
2023-05-09T11:46:39.791Z,23.10
2023-05-09T11:47:44.787Z,23.37
2023-05-09T11:48:49.418Z,23.74
2023-05-09T11:49:53.813Z,24.05
2023-05-09T11:50:57.115Z,24.11
2023-05-09T11:52:01.197Z,23.51
2023-05-09T11:53:04.459Z,23.25
2023-05-09T11:54:11.381Z,23.32
2023-05-09T11:55:17.761Z,23.10
2023-05-09T11:56:23.223Z,23.09
2023-05-09T11:57:25.725Z,23.14
2023-05-09T11:58:29.639Z,23.20
2023-05-09T11:59:34.360Z,23.05
2023-05-09T12:00:38.194Z,22.89
2023-05-09T12:01:42.626Z,22.78
2023-05-09T12:02:47.093Z,22.45
2023-05-09T12:03:52.044Z,22.50
2023-05-09T12:04:55.359Z,22.50
2023-05-09T12:05:57.588Z,22.16
2023-05-09T12:07:00.855Z,22.14
2023-05-09T12:08:05.880Z,22.21
2023-05-09T12:09:10.858Z,22.05
2023-05-09T12:10:16.104Z,22.03
2023-05-09T12:11:18.775Z,22.30
2023-05-09T12:12:22.752Z,21.89
2023-05-09T12:13:26.661Z,21.82
2023-05-09T12:14:32.284Z,21.96
2023-05-09T12:15:43.684Z,22.42
2023-05-09T12:16:50.101Z,22.68
2023-05-09T12:18:04.582Z,22.69
2023-05-09T12:19:12.083Z,22.50
2023-05-09T12:20:15.394Z,22.33
2023-05-09T12:21:20.912Z,22.26
2023-05-09T12:22:24.094Z,22.40
2023-05-09T12:23:26.549Z,22.72
2023-05-09T12:24:32.330Z,22.55
2023-05-09T12:25:38.528Z,22.58
2023-05-09T12:26:43.232Z,22.32
2023-05-09T12:27:46.565Z,22.35
2023-05-09T12:28:52.124Z,22.10
2023-05-09T12:29:55.942Z,22.18
2023-05-09T12:31:01.576Z,22.25
2023-05-09T12:32:05.997Z,22.05
2023-05-09T12:33:12.464Z,22.13
2023-05-09T12:34:18.064Z,22.18
2023-05-09T12:35:23.637Z,22.28
2023-05-09T12:36:27.518Z,22.28
2023-05-09T12:37:33.820Z,22.00
2023-05-09T12:38:37.411Z,21.81
2023-05-09T12:39:45.464Z,21.53
2023-05-09T12:40:49.770Z,21.51
2023-05-09T12:42:02.040Z,21.32
2023-05-09T12:43:06.111Z,21.38
2023-05-09T12:44:09.252Z,21.23
2023-05-09T12:45:14.122Z,21.18
2023-05-09T12:46:20.171Z,21.34
2023-05-09T12:47:22.726Z,21.36
2023-05-09T12:48:27.059Z,21.21
2023-05-09T12:49:33.156Z,21.21
2023-05-09T12:50:37.144Z,21.04
2023-05-09T12:51:49.270Z,21.03
2023-05-09T12:53:02.583Z,21.05
2023-05-09T12:54:10.996Z,21.03
2023-05-09T12:55:18.943Z,21.04
2023-05-09T12:56:25.540Z,21.07
2023-05-09T12:57:31.445Z,21.01
2023-05-09T12:58:35.457Z,21.11
2023-05-09T12:59:41.081Z,21.12
2023-05-09T13:00:44.531Z,21.13
2023-05-09T13:01:54.536Z,21.30
2023-05-09T13:02:57.918Z,21.36
2023-05-09T13:04:06.503Z,21.42
2023-05-09T13:05:10.968Z,21.65
2023-05-09T13:06:15.732Z,21.70
2023-05-09T13:07:27.504Z,21.76
2023-05-09T13:08:30.475Z,21.56
2023-05-09T13:09:40.081Z,21.67
2023-05-09T13:10:43.786Z,21.62
2023-05-09T13:11:47.910Z,21.55
2023-05-09T13:12:52.378Z,21.70
2023-05-09T13:13:56.234Z,21.79
2023-05-09T13:14:59.727Z,21.93
2023-05-09T13:16:08.183Z,22.31
2023-05-09T13:17:13.357Z,22.66
2023-05-09T13:18:15.677Z,22.81
2023-05-09T13:19:20.008Z,22.98
2023-05-09T13:20:22.868Z,22.87
2023-05-09T13:21:26.381Z,23.07
2023-05-09T13:22:29.850Z,23.21
2023-05-09T13:23:36.289Z,23.53
2023-05-09T13:24:39.597Z,23.74
2023-05-09T13:25:44.257Z,23.73
2023-05-09T13:26:48.166Z,23.58
2023-05-09T13:27:51.487Z,23.52
2023-05-09T13:28:56.371Z,23.33
2023-05-09T13:30:06.931Z,22.97
2023-05-09T13:31:10.719Z,22.62
2023-05-09T13:32:12.981Z,22.44
2023-05-09T13:33:25.916Z,22.47
2023-05-09T13:34:30.166Z,22.54
2023-05-09T13:35:32.681Z,22.77
2023-05-09T13:36:35.927Z,22.98
2023-05-09T13:37:41.369Z,22.99
2023-05-09T13:38:46.007Z,22.69
2023-05-09T13:39:49.462Z,22.71
2023-05-09T13:40:53.277Z,22.63
2023-05-09T13:41:58.641Z,22.61
2023-05-09T13:43:02.263Z,22.60
2023-05-09T13:44:06.409Z,22.37
2023-05-09T13:45:11.731Z,22.21
2023-05-09T13:46:15.194Z,21.99
2023-05-09T13:47:18.135Z,21.90
2023-05-09T13:48:21.860Z,21.84
2023-05-09T13:49:26.260Z,21.97
2023-05-09T13:50:29.321Z,21.99
2023-05-09T13:51:33.771Z,21.87
2023-05-09T13:52:39.019Z,21.92
2023-05-09T13:53:44.073Z,21.81
2023-05-09T13:54:48.268Z,21.87
2023-05-09T13:55:52.160Z,21.98